sensor_id;sensor_type;location;lat;lon;timestamp;pressure;altitude;pressure_sealevel;temperature;humidity
54900;BME280;40801;41.924;25.562;2023-08-12T00:00:05;99847.97;;;19.99;55.53
54900;BME280;40801;41.924;25.562;2023-08-12T00:02:38;99852.56;;;19.95;55.75
54900;BME280;40801;41.924;25.562;2023-08-12T00:05:04;99855.22;;;19.91;55.96
54900;BME280;40801;41.924;25.562;2023-08-12T00:07:29;99856.00;;;19.92;55.99
54900;BME280;40801;41.924;25.562;2023-08-12T00:09:55;99860.31;;;19.93;55.85
54900;BME280;40801;41.924;25.562;2023-08-12T00:12:21;99863.78;;;19.90;56.30
54900;BME280;40801;41.924;25.562;2023-08-12T00:14:47;99861.03;;;19.90;56.08
54900;BME280;40801;41.924;25.562;2023-08-12T00:17:12;99865.13;;;19.80;56.54
54900;BME280;40801;41.924;25.562;2023-08-12T00:19:37;99859.13;;;19.74;56.50
54900;BME280;40801;41.924;25.562;2023-08-12T00:22:03;99865.56;;;19.82;55.90
54900;BME280;40801;41.924;25.562;2023-08-12T00:24:30;99868.72;;;19.84;55.81
54900;BME280;40801;41.924;25.562;2023-08-12T00:26:55;99857.97;;;19.75;56.18
54900;BME280;40801;41.924;25.562;2023-08-12T00:29:21;99859.41;;;19.69;56.55
54900;BME280;40801;41.924;25.562;2023-08-12T00:31:46;99864.06;;;19.69;56.48
54900;BME280;40801;41.924;25.562;2023-08-12T00:34:11;99863.63;;;19.67;56.57
54900;BME280;40801;41.924;25.562;2023-08-12T00:36:37;99866.63;;;19.62;57.06
54900;BME280;40801;41.924;25.562;2023-08-12T00:39:02;99865.75;;;19.58;57.28
54900;BME280;40801;41.924;25.562;2023-08-12T00:41:29;99857.69;;;19.49;57.45
54900;BME280;40801;41.924;25.562;2023-08-12T00:43:54;99861.47;;;19.44;57.50
54900;BME280;40801;41.924;25.562;2023-08-12T00:46:20;99860.47;;;19.37;57.85
54900;BME280;40801;41.924;25.562;2023-08-12T00:48:45;99858.22;;;19.39;57.65
54900;BME280;40801;41.924;25.562;2023-08-12T00:51:11;99856.06;;;19.32;57.89
54900;BME280;40801;41.924;25.562;2023-08-12T00:53:37;99857.91;;;19.28;57.90
54900;BME280;40801;41.924;25.562;2023-08-12T00:56:03;99852.09;;;19.30;57.91
54900;BME280;40801;41.924;25.562;2023-08-12T00:58:29;99855.19;;;19.28;57.92
54900;BME280;40801;41.924;25.562;2023-08-12T01:00:54;99851.31;;;19.29;57.78
54900;BME280;40801;41.924;25.562;2023-08-12T01:03:21;99846.91;;;19.25;58.02
54900;BME280;40801;41.924;25.562;2023-08-12T01:05:47;99852.19;;;19.17;58.17
54900;BME280;40801;41.924;25.562;2023-08-12T01:08:12;99851.38;;;19.17;58.35
54900;BME280;40801;41.924;25.562;2023-08-12T01:10:47;99854.72;;;19.10;58.56
54900;BME280;40801;41.924;25.562;2023-08-12T01:13:46;99853.38;;;19.04;59.50
54900;BME280;40801;41.924;25.562;2023-08-12T01:16:13;99851.69;;;19.00;58.59
54900;BME280;40801;41.924;25.562;2023-08-12T01:18:40;99845.78;;;18.98;58.53
54900;BME280;40801;41.924;25.562;2023-08-12T01:21:07;99852.84;;;18.99;58.71
54900;BME280;40801;41.924;25.562;2023-08-12T01:23:34;99847.72;;;18.97;58.77
54900;BME280;40801;41.924;25.562;2023-08-12T01:25:59;99848.53;;;18.98;58.66
54900;BME280;40801;41.924;25.562;2023-08-12T01:28:25;99848.16;;;18.99;58.69
54900;BME280;40801;41.924;25.562;2023-08-12T01:30:57;99859.81;;;18.96;59.22
54900;BME280;40801;41.924;25.562;2023-08-12T01:33:34;99870.28;;;18.94;59.47
54900;BME280;40801;41.924;25.562;2023-08-12T01:36:16;99862.25;;;18.85;60.11
54900;BME280;40801;41.924;25.562;2023-08-12T01:38:43;99863.97;;;18.78;59.59
54900;BME280;40801;41.924;25.562;2023-08-12T01:41:10;99859.53;;;18.73;59.80
54900;BME280;40801;41.924;25.562;2023-08-12T01:43:37;99859.00;;;18.68;59.79
54900;BME280;40801;41.924;25.562;2023-08-12T01:46:03;99859.13;;;18.59;60.29
54900;BME280;40801;41.924;25.562;2023-08-12T01:48:29;99858.94;;;18.52;60.46
54900;BME280;40801;41.924;25.562;2023-08-12T01:50:54;99855.72;;;18.50;60.43
54900;BME280;40801;41.924;25.562;2023-08-12T01:53:19;99856.41;;;18.47;60.71
54900;BME280;40801;41.924;25.562;2023-08-12T01:55:45;99859.03;;;18.43;60.78
54900;BME280;40801;41.924;25.562;2023-08-12T01:58:11;99856.66;;;18.42;60.97
54900;BME280;40801;41.924;25.562;2023-08-12T02:00:36;99864.06;;;18.41;60.77
54900;BME280;40801;41.924;25.562;2023-08-12T02:03:02;99870.66;;;18.40;60.72
54900;BME280;40801;41.924;25.562;2023-08-12T02:05:27;99864.06;;;18.41;60.74
54900;BME280;40801;41.924;25.562;2023-08-12T02:07:53;99875.56;;;18.35;61.13
54900;BME280;40801;41.924;25.562;2023-08-12T02:10:18;99868.88;;;18.32;61.20
54900;BME280;40801;41.924;25.562;2023-08-12T02:12:43;99868.75;;;18.29;61.34
54900;BME280;40801;41.924;25.562;2023-08-12T02:15:09;99872.53;;;18.24;61.62
54900;BME280;40801;41.924;25.562;2023-08-12T02:17:34;99874.91;;;18.25;61.51
54900;BME280;40801;41.924;25.562;2023-08-12T02:20:00;99881.50;;;18.24;61.69
54900;BME280;40801;41.924;25.562;2023-08-12T02:22:25;99885.03;;;18.25;61.55
54900;BME280;40801;41.924;25.562;2023-08-12T02:24:50;99882.31;;;18.25;61.63
54900;BME280;40801;41.924;25.562;2023-08-12T02:27:16;99878.19;;;18.19;61.80
54900;BME280;40801;41.924;25.562;2023-08-12T02:29:41;99884.69;;;18.14;61.91
54900;BME280;40801;41.924;25.562;2023-08-12T02:32:07;99883.91;;;18.14;62.04
54900;BME280;40801;41.924;25.562;2023-08-12T02:34:32;99884.59;;;18.11;61.91
54900;BME280;40801;41.924;25.562;2023-08-12T02:36:57;99886.97;;;18.12;62.25
54900;BME280;40801;41.924;25.562;2023-08-12T02:39:23;99880.50;;;18.05;62.18
54900;BME280;40801;41.924;25.562;2023-08-12T02:41:48;99882.53;;;18.08;62.41
54900;BME280;40801;41.924;25.562;2023-08-12T02:44:14;99890.38;;;18.09;62.33
54900;BME280;40801;41.924;25.562;2023-08-12T02:46:39;99891.63;;;18.12;62.17
54900;BME280;40801;41.924;25.562;2023-08-12T02:49:05;99891.97;;;18.10;62.07
54900;BME280;40801;41.924;25.562;2023-08-12T02:51:30;99890.84;;;18.11;62.29
54900;BME280;40801;41.924;25.562;2023-08-12T02:53:55;99899.13;;;18.15;61.96
54900;BME280;40801;41.924;25.562;2023-08-12T02:56:21;99902.31;;;18.17;62.16
54900;BME280;40801;41.924;25.562;2023-08-12T02:58:46;99897.66;;;18.17;61.92
54900;BME280;40801;41.924;25.562;2023-08-12T03:01:12;99898.25;;;18.23;62.09
54900;BME280;40801;41.924;25.562;2023-08-12T03:03:38;99899.38;;;18.22;62.12
54900;BME280;40801;41.924;25.562;2023-08-12T03:06:03;99892.97;;;18.18;62.13
54900;BME280;40801;41.924;25.562;2023-08-12T03:08:29;99890.72;;;18.20;62.03
54900;BME280;40801;41.924;25.562;2023-08-12T03:11:01;99894.56;;;18.19;62.62
54900;BME280;40801;41.924;25.562;2023-08-12T03:13:28;99885.94;;;18.17;62.15
54900;BME280;40801;41.924;25.562;2023-08-12T03:15:54;99880.94;;;18.19;61.81
54900;BME280;40801;41.924;25.562;2023-08-12T03:18:19;99890.59;;;18.16;61.94
54900;BME280;40801;41.924;25.562;2023-08-12T03:20:44;99889.13;;;18.19;61.72
54900;BME280;40801;41.924;25.562;2023-08-12T03:23:10;99896.66;;;18.22;61.74
54900;BME280;40801;41.924;25.562;2023-08-12T03:25:35;99887.53;;;18.18;61.75
54900;BME280;40801;41.924;25.562;2023-08-12T03:28:00;99895.72;;;18.18;62.05
54900;BME280;40801;41.924;25.562;2023-08-12T03:30:26;99892.19;;;18.17;62.21
54900;BME280;40801;41.924;25.562;2023-08-12T03:32:52;99894.56;;;18.19;62.29
54900;BME280;40801;41.924;25.562;2023-08-12T03:35:18;99889.47;;;18.17;62.06
54900;BME280;40801;41.924;25.562;2023-08-12T03:37:43;99893.69;;;18.15;62.28
54900;BME280;40801;41.924;25.562;2023-08-12T03:40:09;99886.50;;;18.10;62.35
54900;BME280;40801;41.924;25.562;2023-08-12T03:42:34;99896.63;;;18.10;62.33
54900;BME280;40801;41.924;25.562;2023-08-12T03:45:00;99890.28;;;18.06;62.84
54900;BME280;40801;41.924;25.562;2023-08-12T03:47:25;99891.19;;;18.10;62.73
54900;BME280;40801;41.924;25.562;2023-08-12T03:49:51;99890.03;;;18.11;62.46
54900;BME280;40801;41.924;25.562;2023-08-12T03:52:16;99886.63;;;18.14;62.44
54900;BME280;40801;41.924;25.562;2023-08-12T03:54:42;99892.97;;;18.18;62.47
54900;BME280;40801;41.924;25.562;2023-08-12T03:57:07;99894.22;;;18.20;62.26
54900;BME280;40801;41.924;25.562;2023-08-12T03:59:33;99895.16;;;18.24;62.30
54900;BME280;40801;41.924;25.562;2023-08-12T04:01:58;99903.81;;;18.26;62.33
54900;BME280;40801;41.924;25.562;2023-08-12T04:04:23;99896.28;;;18.36;62.06
54900;BME280;40801;41.924;25.562;2023-08-12T04:06:49;99903.09;;;18.42;62.32
54900;BME280;40801;41.924;25.562;2023-08-12T04:09:19;99899.91;;;18.52;62.17
54900;BME280;40801;41.924;25.562;2023-08-12T04:11:45;99899.22;;;18.55;61.89
54900;BME280;40801;41.924;25.562;2023-08-12T04:14:12;99904.31;;;18.56;62.03
54900;BME280;40801;41.924;25.562;2023-08-12T04:16:38;99893.84;;;18.58;62.07
54900;BME280;40801;41.924;25.562;2023-08-12T04:19:04;99906.72;;;18.58;62.25
54900;BME280;40801;41.924;25.562;2023-08-12T04:21:29;99912.16;;;18.58;62.24
54900;BME280;40801;41.924;25.562;2023-08-12T04:23:55;99906.94;;;18.65;62.13
54900;BME280;40801;41.924;25.562;2023-08-12T04:26:20;99905.78;;;18.66;62.26
54900;BME280;40801;41.924;25.562;2023-08-12T04:28:46;99901.44;;;18.77;61.88
54900;BME280;40801;41.924;25.562;2023-08-12T04:31:11;99902.19;;;18.90;61.43
54900;BME280;40801;41.924;25.562;2023-08-12T04:33:36;99906.81;;;19.02;61.46
54900;BME280;40801;41.924;25.562;2023-08-12T04:36:02;99904.47;;;19.16;60.97
54900;BME280;40801;41.924;25.562;2023-08-12T04:38:27;99913.50;;;19.32;60.69
54900;BME280;40801;41.924;25.562;2023-08-12T04:40:53;99908.88;;;19.48;60.07
54900;BME280;40801;41.924;25.562;2023-08-12T04:43:19;99905.81;;;19.66;59.73
54900;BME280;40801;41.924;25.562;2023-08-12T04:45:46;99914.81;;;19.82;59.51
54900;BME280;40801;41.924;25.562;2023-08-12T04:48:12;99917.22;;;19.99;59.17
54900;BME280;40801;41.924;25.562;2023-08-12T04:50:38;99928.41;;;20.10;59.03
54900;BME280;40801;41.924;25.562;2023-08-12T04:53:04;99919.28;;;20.22;58.89
54900;BME280;40801;41.924;25.562;2023-08-12T04:55:30;99924.94;;;20.29;58.87
54900;BME280;40801;41.924;25.562;2023-08-12T04:57:55;99917.09;;;20.27;59.00
54900;BME280;40801;41.924;25.562;2023-08-12T05:00:21;99932.97;;;20.37;58.92
54900;BME280;40801;41.924;25.562;2023-08-12T05:02:47;99917.66;;;20.52;58.77
54900;BME280;40801;41.924;25.562;2023-08-12T05:05:12;99921.88;;;20.65;58.45
54900;BME280;40801;41.924;25.562;2023-08-12T05:07:38;99933.38;;;20.90;57.64
54900;BME280;40801;41.924;25.562;2023-08-12T05:10:03;99930.59;;;21.10;57.07
54900;BME280;40801;41.924;25.562;2023-08-12T05:12:29;99925.50;;;21.27;56.81
54900;BME280;40801;41.924;25.562;2023-08-12T05:14:54;99928.97;;;21.44;56.52
54900;BME280;40801;41.924;25.562;2023-08-12T05:17:20;99930.41;;;21.60;55.98
54900;BME280;40801;41.924;25.562;2023-08-12T05:19:46;99938.13;;;21.74;56.00
54900;BME280;40801;41.924;25.562;2023-08-12T05:22:11;99937.88;;;21.83;55.57
54900;BME280;40801;41.924;25.562;2023-08-12T05:24:36;99935.06;;;22.02;55.14
54900;BME280;40801;41.924;25.562;2023-08-12T05:27:02;99934.19;;;22.21;54.55
54900;BME280;40801;41.924;25.562;2023-08-12T05:29:28;99938.75;;;22.36;54.34
54900;BME280;40801;41.924;25.562;2023-08-12T05:31:53;99932.56;;;22.43;54.23
54900;BME280;40801;41.924;25.562;2023-08-12T05:34:18;99939.88;;;22.58;53.53
54900;BME280;40801;41.924;25.562;2023-08-12T05:36:44;99938.09;;;22.73;52.94
54900;BME280;40801;41.924;25.562;2023-08-12T05:39:09;99932.41;;;22.85;52.70
54900;BME280;40801;41.924;25.562;2023-08-12T05:41:35;99931.81;;;23.02;52.18
54900;BME280;40801;41.924;25.562;2023-08-12T05:44:00;99931.25;;;23.20;51.81
54900;BME280;40801;41.924;25.562;2023-08-12T05:46:25;99921.59;;;23.40;51.45
54900;BME280;40801;41.924;25.562;2023-08-12T05:48:51;99911.59;;;23.58;51.10
54900;BME280;40801;41.924;25.562;2023-08-12T05:51:16;99918.34;;;23.64;51.16
54900;BME280;40801;41.924;25.562;2023-08-12T05:53:41;99914.97;;;23.82;50.31
54900;BME280;40801;41.924;25.562;2023-08-12T05:56:07;99915.84;;;23.96;50.23
54900;BME280;40801;41.924;25.562;2023-08-12T05:58:32;99913.19;;;24.07;49.55
54900;BME280;40801;41.924;25.562;2023-08-12T06:00:58;99916.78;;;24.11;49.33
54900;BME280;40801;41.924;25.562;2023-08-12T06:03:23;99912.22;;;24.29;48.85
54900;BME280;40801;41.924;25.562;2023-08-12T06:05:48;99908.78;;;24.50;48.68
54900;BME280;40801;41.924;25.562;2023-08-12T06:08:14;99919.91;;;24.64;48.41
54900;BME280;40801;41.924;25.562;2023-08-12T06:10:40;99914.84;;;24.84;48.04
54900;BME280;40801;41.924;25.562;2023-08-12T06:13:05;99909.44;;;24.98;47.85
54900;BME280;40801;41.924;25.562;2023-08-12T06:15:31;99909.84;;;25.11;47.45
54900;BME280;40801;41.924;25.562;2023-08-12T06:17:57;99905.97;;;25.30;46.74
54900;BME280;40801;41.924;25.562;2023-08-12T06:20:25;99910.72;;;25.37;46.29
54900;BME280;40801;41.924;25.562;2023-08-12T06:22:51;99909.56;;;25.59;45.88
54900;BME280;40801;41.924;25.562;2023-08-12T06:25:17;99907.25;;;25.82;45.40
54900;BME280;40801;41.924;25.562;2023-08-12T06:27:43;99910.81;;;26.04;44.71
54900;BME280;40801;41.924;25.562;2023-08-12T06:30:09;99904.44;;;26.21;44.66
54900;BME280;40801;41.924;25.562;2023-08-12T06:32:35;99906.44;;;26.39;44.41
54900;BME280;40801;41.924;25.562;2023-08-12T06:35:01;99905.97;;;26.58;44.09
54900;BME280;40801;41.924;25.562;2023-08-12T06:37:26;99913.88;;;26.63;43.55
54900;BME280;40801;41.924;25.562;2023-08-12T06:39:51;99901.66;;;26.43;42.98
54900;BME280;40801;41.924;25.562;2023-08-12T06:42:17;99901.59;;;26.68;42.62
54900;BME280;40801;41.924;25.562;2023-08-12T06:44:42;99900.84;;;26.60;42.01
54900;BME280;40801;41.924;25.562;2023-08-12T06:47:08;99904.75;;;26.70;42.46
54900;BME280;40801;41.924;25.562;2023-08-12T06:49:33;99906.63;;;26.94;41.60
54900;BME280;40801;41.924;25.562;2023-08-12T06:51:58;99900.56;;;27.28;41.46
54900;BME280;40801;41.924;25.562;2023-08-12T06:54:24;99896.34;;;27.68;41.05
54900;BME280;40801;41.924;25.562;2023-08-12T06:56:50;99890.63;;;27.89;40.19
54900;BME280;40801;41.924;25.562;2023-08-12T06:59:15;99896.72;;;28.15;39.33
54900;BME280;40801;41.924;25.562;2023-08-12T07:01:41;99893.78;;;28.36;39.28
54900;BME280;40801;41.924;25.562;2023-08-12T07:04:06;99894.97;;;28.69;38.71
54900;BME280;40801;41.924;25.562;2023-08-12T07:06:32;99897.84;;;28.96;38.17
54900;BME280;40801;41.924;25.562;2023-08-12T07:08:57;99893.59;;;28.84;37.64
54900;BME280;40801;41.924;25.562;2023-08-12T07:11:22;99893.72;;;29.08;37.37
54900;BME280;40801;41.924;25.562;2023-08-12T07:13:48;99885.13;;;29.25;36.98
54900;BME280;40801;41.924;25.562;2023-08-12T07:16:13;99879.78;;;29.38;36.64
54900;BME280;40801;41.924;25.562;2023-08-12T07:18:39;99878.06;;;29.21;36.03
54900;BME280;40801;41.924;25.562;2023-08-12T07:21:04;99882.81;;;29.51;36.03
54900;BME280;40801;41.924;25.562;2023-08-12T07:23:29;99880.22;;;29.64;35.25
54900;BME280;40801;41.924;25.562;2023-08-12T07:25:55;99878.94;;;29.68;34.80
54900;BME280;40801;41.924;25.562;2023-08-12T07:28:20;99889.75;;;29.63;34.95
54900;BME280;40801;41.924;25.562;2023-08-12T07:30:48;99884.31;;;29.55;34.45
54900;BME280;40801;41.924;25.562;2023-08-12T07:33:13;99878.38;;;29.77;34.09
54900;BME280;40801;41.924;25.562;2023-08-12T07:35:38;99876.59;;;30.13;34.17
54900;BME280;40801;41.924;25.562;2023-08-12T07:38:04;99876.00;;;30.45;33.96
54900;BME280;40801;41.924;25.562;2023-08-12T07:40:29;99873.72;;;30.60;32.82
54900;BME280;40801;41.924;25.562;2023-08-12T07:42:55;99879.97;;;30.25;33.16
54900;BME280;40801;41.924;25.562;2023-08-12T07:45:21;99889.44;;;30.70;32.67
54900;BME280;40801;41.924;25.562;2023-08-12T07:47:48;99878.88;;;31.18;32.09
54900;BME280;40801;41.924;25.562;2023-08-12T07:50:14;99876.91;;;31.51;32.04
54900;BME280;40801;41.924;25.562;2023-08-12T07:52:40;99879.38;;;31.12;31.59
54900;BME280;40801;41.924;25.562;2023-08-12T07:55:06;99874.22;;;31.63;31.17
54900;BME280;40801;41.924;25.562;2023-08-12T07:57:31;99873.78;;;32.14;30.90
54900;BME280;40801;41.924;25.562;2023-08-12T07:59:57;99870.34;;;32.39;30.65
54900;BME280;40801;41.924;25.562;2023-08-12T08:02:22;99863.75;;;32.45;30.18
54900;BME280;40801;41.924;25.562;2023-08-12T08:04:48;99866.31;;;32.40;30.39
54900;BME280;40801;41.924;25.562;2023-08-12T08:07:15;99856.06;;;32.62;29.74
54900;BME280;40801;41.924;25.562;2023-08-12T08:09:41;99857.41;;;33.12;29.42
54900;BME280;40801;41.924;25.562;2023-08-12T08:12:08;99851.81;;;33.24;29.23
54900;BME280;40801;41.924;25.562;2023-08-12T08:14:33;99857.28;;;33.53;28.95
54900;BME280;40801;41.924;25.562;2023-08-12T08:16:59;99856.34;;;33.82;28.25
54900;BME280;40801;41.924;25.562;2023-08-12T08:19:24;99855.72;;;34.12;28.59
54900;BME280;40801;41.924;25.562;2023-08-12T08:21:50;99854.56;;;33.88;28.30
54900;BME280;40801;41.924;25.562;2023-08-12T08:24:15;99858.03;;;33.92;28.07
54900;BME280;40801;41.924;25.562;2023-08-12T08:26:41;99843.13;;;33.95;27.15
54900;BME280;40801;41.924;25.562;2023-08-12T08:29:06;99851.94;;;34.28;27.44
54900;BME280;40801;41.924;25.562;2023-08-12T08:31:32;99852.44;;;34.48;27.87
54900;BME280;40801;41.924;25.562;2023-08-12T08:33:58;99839.31;;;34.67;26.83
54900;BME280;40801;41.924;25.562;2023-08-12T08:36:23;99838.41;;;34.70;27.17
54900;BME280;40801;41.924;25.562;2023-08-12T08:38:49;99838.56;;;34.98;26.95
54900;BME280;40801;41.924;25.562;2023-08-12T08:41:16;99835.06;;;35.16;26.48
54900;BME280;40801;41.924;25.562;2023-08-12T08:43:42;99839.41;;;35.07;26.08
54900;BME280;40801;41.924;25.562;2023-08-12T08:46:16;99842.63;;;34.75;25.31
54900;BME280;40801;41.924;25.562;2023-08-12T08:48:45;99831.19;;;34.60;25.73
54900;BME280;40801;41.924;25.562;2023-08-12T08:51:12;99832.44;;;34.37;25.80
54900;BME280;40801;41.924;25.562;2023-08-12T08:53:38;99832.38;;;35.03;25.36
54900;BME280;40801;41.924;25.562;2023-08-12T08:56:08;99826.91;;;34.99;25.49
54900;BME280;40801;41.924;25.562;2023-08-12T08:58:37;99829.75;;;35.18;24.98
54900;BME280;40801;41.924;25.562;2023-08-12T09:01:21;99828.06;;;35.69;24.67
54900;BME280;40801;41.924;25.562;2023-08-12T09:03:47;99813.59;;;35.89;24.73
54900;BME280;40801;41.924;25.562;2023-08-12T09:06:16;99825.13;;;36.00;24.47
54900;BME280;40801;41.924;25.562;2023-08-12T09:08:45;99811.72;;;35.95;24.52
54900;BME280;40801;41.924;25.562;2023-08-12T09:11:12;99802.34;;;36.17;24.05
54900;BME280;40801;41.924;25.562;2023-08-12T09:13:38;99798.13;;;36.21;24.19
54900;BME280;40801;41.924;25.562;2023-08-12T09:16:04;99799.28;;;36.75;23.63
54900;BME280;40801;41.924;25.562;2023-08-12T09:18:29;99796.66;;;36.63;23.34
54900;BME280;40801;41.924;25.562;2023-08-12T09:20:56;99792.69;;;36.87;23.10
54900;BME280;40801;41.924;25.562;2023-08-12T09:23:21;99792.63;;;36.97;23.30
54900;BME280;40801;41.924;25.562;2023-08-12T09:25:47;99793.34;;;37.15;22.98
54900;BME280;40801;41.924;25.562;2023-08-12T09:28:13;99791.16;;;36.77;22.85
54900;BME280;40801;41.924;25.562;2023-08-12T09:30:39;99788.41;;;35.49;23.52
54900;BME280;40801;41.924;25.562;2023-08-12T09:33:07;99793.09;;;35.52;23.67
54900;BME280;40801;41.924;25.562;2023-08-12T09:35:34;99783.13;;;35.42;24.59
54900;BME280;40801;41.924;25.562;2023-08-12T09:38:02;99773.19;;;35.01;24.68
54900;BME280;40801;41.924;25.562;2023-08-12T09:40:28;99771.28;;;34.98;25.03
54900;BME280;40801;41.924;25.562;2023-08-12T09:42:54;99770.25;;;35.14;25.14
54900;BME280;40801;41.924;25.562;2023-08-12T09:45:23;99772.03;;;34.89;24.75
54900;BME280;40801;41.924;25.562;2023-08-12T09:47:49;99775.81;;;35.72;24.75
54900;BME280;40801;41.924;25.562;2023-08-12T09:50:14;99769.25;;;35.38;23.91
54900;BME280;40801;41.924;25.562;2023-08-12T09:52:40;99763.59;;;34.27;25.02
54900;BME280;40801;41.924;25.562;2023-08-12T09:55:07;99765.94;;;35.31;24.52
54900;BME280;40801;41.924;25.562;2023-08-12T09:57:33;99753.97;;;35.49;24.19
54900;BME280;40801;41.924;25.562;2023-08-12T10:00:01;99765.38;;;35.73;23.90
54900;BME280;40801;41.924;25.562;2023-08-12T10:02:28;99761.22;;;35.09;23.85
54900;BME280;40801;41.924;25.562;2023-08-12T10:04:56;99762.31;;;35.21;23.83
54900;BME280;40801;41.924;25.562;2023-08-12T10:07:23;99747.47;;;35.97;23.15
54900;BME280;40801;41.924;25.562;2023-08-12T10:09:50;99753.53;;;35.78;22.90
54900;BME280;40801;41.924;25.562;2023-08-12T10:12:16;99744.97;;;35.90;22.69
54900;BME280;40801;41.924;25.562;2023-08-12T10:14:42;99727.28;;;36.26;22.78
54900;BME280;40801;41.924;25.562;2023-08-12T10:17:08;99744.56;;;37.18;22.69
54900;BME280;40801;41.924;25.562;2023-08-12T10:19:35;99727.69;;;37.66;21.84
54900;BME280;40801;41.924;25.562;2023-08-12T10:22:02;99721.94;;;38.29;21.16
54900;BME280;40801;41.924;25.562;2023-08-12T10:24:29;99729.44;;;37.40;21.22
54900;BME280;40801;41.924;25.562;2023-08-12T10:26:54;99726.97;;;37.09;21.03
54900;BME280;40801;41.924;25.562;2023-08-12T10:29:20;99714.28;;;37.61;21.00
54900;BME280;40801;41.924;25.562;2023-08-12T10:31:47;99714.72;;;38.13;20.68
54900;BME280;40801;41.924;25.562;2023-08-12T10:34:21;99717.53;;;37.83;20.10
54900;BME280;40801;41.924;25.562;2023-08-12T10:36:47;99717.38;;;38.46;20.00
54900;BME280;40801;41.924;25.562;2023-08-12T10:39:13;99719.94;;;38.79;19.89
54900;BME280;40801;41.924;25.562;2023-08-12T10:41:39;99722.88;;;37.81;20.55
54900;BME280;40801;41.924;25.562;2023-08-12T10:44:15;99711.25;;;37.02;21.38
54900;BME280;40801;41.924;25.562;2023-08-12T10:46:49;99714.69;;;36.97;21.11
54900;BME280;40801;41.924;25.562;2023-08-12T10:49:15;99721.84;;;37.07;21.46
54900;BME280;40801;41.924;25.562;2023-08-12T10:51:54;99709.19;;;36.79;21.34
54900;BME280;40801;41.924;25.562;2023-08-12T10:54:24;99704.50;;;36.34;22.25
54900;BME280;40801;41.924;25.562;2023-08-12T11:02:33;99695.38;;;34.83;23.08
54900;BME280;40801;41.924;25.562;2023-08-12T11:05:08;99682.75;;;35.92;22.06
54900;BME280;40801;41.924;25.562;2023-08-12T11:10:22;99683.34;;;38.05;20.69
54900;BME280;40801;41.924;25.562;2023-08-12T11:15:44;99679.16;;;36.52;21.86
54900;BME280;40801;41.924;25.562;2023-08-12T11:18:14;99680.72;;;35.65;22.72
54900;BME280;40801;41.924;25.562;2023-08-12T11:20:42;99683.53;;;36.86;22.64
54900;BME280;40801;41.924;25.562;2023-08-12T11:23:08;99680.75;;;37.01;21.68
54900;BME280;40801;41.924;25.562;2023-08-12T11:25:35;99675.47;;;36.37;21.95
54900;BME280;40801;41.924;25.562;2023-08-12T11:28:01;99671.19;;;36.50;22.23
54900;BME280;40801;41.924;25.562;2023-08-12T11:30:27;99673.56;;;36.76;21.41
54900;BME280;40801;41.924;25.562;2023-08-12T11:32:54;99665.53;;;37.55;20.83
54900;BME280;40801;41.924;25.562;2023-08-12T11:35:22;99668.63;;;37.18;20.55
54900;BME280;40801;41.924;25.562;2023-08-12T11:37:50;99668.91;;;36.73;21.28
54900;BME280;40801;41.924;25.562;2023-08-12T11:40:18;99672.13;;;35.78;22.39
54900;BME280;40801;41.924;25.562;2023-08-12T11:42:46;99673.72;;;35.42;23.07
54900;BME280;40801;41.924;25.562;2023-08-12T11:45:12;99667.44;;;35.11;22.78
54900;BME280;40801;41.924;25.562;2023-08-12T11:47:39;99657.03;;;35.66;22.57
54900;BME280;40801;41.924;25.562;2023-08-12T11:50:06;99650.00;;;36.73;21.64
54900;BME280;40801;41.924;25.562;2023-08-12T11:52:34;99645.59;;;37.82;21.47
54900;BME280;40801;41.924;25.562;2023-08-12T11:55:00;99657.13;;;38.29;20.81
54900;BME280;40801;41.924;25.562;2023-08-12T11:57:26;99656.31;;;37.55;20.46
54900;BME280;40801;41.924;25.562;2023-08-12T12:00:03;99652.19;;;36.45;20.81
54900;BME280;40801;41.924;25.562;2023-08-12T12:02:30;99651.28;;;35.60;21.43
54900;BME280;40801;41.924;25.562;2023-08-12T12:04:55;99658.72;;;35.27;21.99
54900;BME280;40801;41.924;25.562;2023-08-12T12:07:24;99658.31;;;34.70;23.31
54900;BME280;40801;41.924;25.562;2023-08-12T12:09:52;99654.19;;;34.53;23.24
54900;BME280;40801;41.924;25.562;2023-08-12T12:12:21;99644.22;;;34.42;23.69
54900;BME280;40801;41.924;25.562;2023-08-12T12:14:47;99648.47;;;34.56;23.69
54900;BME280;40801;41.924;25.562;2023-08-12T12:17:14;99641.13;;;35.26;23.41
54900;BME280;40801;41.924;25.562;2023-08-12T12:19:40;99640.66;;;35.19;23.13
54900;BME280;40801;41.924;25.562;2023-08-12T12:22:06;99638.78;;;35.25;23.89
54900;BME280;40801;41.924;25.562;2023-08-12T12:24:32;99636.44;;;35.69;23.13
54900;BME280;40801;41.924;25.562;2023-08-12T12:27:09;99645.47;;;35.18;23.16
54900;BME280;40801;41.924;25.562;2023-08-12T12:29:34;99635.81;;;35.10;23.72
54900;BME280;40801;41.924;25.562;2023-08-12T12:31:59;99640.25;;;34.71;24.22
54900;BME280;40801;41.924;25.562;2023-08-12T12:34:25;99631.19;;;34.58;24.31
54900;BME280;40801;41.924;25.562;2023-08-12T12:36:50;99629.19;;;34.27;24.34
54900;BME280;40801;41.924;25.562;2023-08-12T12:39:15;99627.19;;;33.97;24.83
54900;BME280;40801;41.924;25.562;2023-08-12T12:41:42;99623.72;;;34.24;24.40
54900;BME280;40801;41.924;25.562;2023-08-12T12:44:07;99620.97;;;34.02;24.77
54900;BME280;40801;41.924;25.562;2023-08-12T12:46:32;99625.00;;;33.79;25.12
54900;BME280;40801;41.924;25.562;2023-08-12T12:48:58;99623.25;;;33.85;25.52
54900;BME280;40801;41.924;25.562;2023-08-12T12:51:23;99621.22;;;33.85;25.63
54900;BME280;40801;41.924;25.562;2023-08-12T12:53:49;99612.22;;;33.47;25.44
54900;BME280;40801;41.924;25.562;2023-08-12T12:56:14;99606.25;;;33.36;25.79